LAS weather

McCarran International Airport
Las Vegas, Nevada, United States

Public forecast

Using degrees Fahrenheit for public forecast. Weather courtesy of forecast.io.

METAR (pilot weather report)

Retrieved 2018/08/17 08:56 UTC (60 minutes ago):

KLAS 170856Z 18005KT 10SM FEW250 29/13 A3001 RMK AO2 SLP133 T02940133 58002

TAF (pilot weather forecast)

Retrieved 2018/08/17 06:22 UTC (4 hours ago):

TAF KLAS 170520Z 1706/1812 20008KT P6SM SCT120 BKN250 FM170700 24008KT P6SM SCT120 BKN250 FM171200 VRB06KT P6SM SCT120 SCT200 FM172200 20010KT P6SM SCT120 SCT200